Time;durP1;ratioP1;P1;durP2;ratioP2;P2;SDS_P1;SDS_P2;PMS_P1;PMS_P2;Temp;Humidity;BMP_temperature;BMP_pressure;BME280_temperature;BME280_humidity;BME280_pressure;Samples;Min_cycle;Max_cycle;Signal;HPM_P1;HPM_P2
2022/11/30 00:00:57;;;;;;;;;24.75;17.75;;;;;8.26;75.90;101990.00;5043960;28;45483;-83
2022/11/30 00:03:23;;;;;;;;;20.75;14.25;;;;;8.24;75.97;101977.03;5060841;28;46173;-82
2022/11/30 00:05:48;;;;;;;;;21.50;14.75;;;;;8.17;75.85;101967.50;5079062;28;45482;-82
2022/11/30 00:08:14;;;;;;;;;16.50;14.75;;;;;8.24;75.59;101979.63;5079078;28;47262;-82
2022/11/30 00:10:40;;;;;;;;;21.50;16.75;;;;;8.13;76.18;101961.47;5079090;28;45296;-82
2022/11/30 00:13:05;;;;;;;;;23.50;17.25;;;;;8.18;76.06;101956.28;5078946;28;46416;-82
2022/11/30 00:15:31;;;;;;;;;18.00;14.50;;;;;8.19;76.14;101958.03;5060373;28;45398;-82
2022/11/30 00:17:56;;;;;;;;;21.75;14.75;;;;;8.18;75.61;101958.00;5060903;28;45254;-82
2022/11/30 00:20:22;;;;;;;;;14.50;11.75;;;;;8.20;75.84;101958.88;5078940;28;45301;-81
2022/11/30 00:22:47;;;;;;;;;21.00;17.00;;;;;8.24;75.88;101968.38;5060740;28;46678;-82
2022/11/30 00:25:12;;;;;;;;;17.50;16.75;;;;;8.16;75.49;101963.19;5043442;28;53113;-82
2022/11/30 00:27:38;;;;;;;;;24.50;16.00;;;;;8.14;75.55;101960.59;5060621;28;45424;-82
2022/11/30 00:30:04;;;;;;;;;17.75;13.75;;;;;8.13;75.90;101958.88;5060433;28;45546;-82
2022/11/30 00:32:30;;;;;;;;;20.75;14.00;;;;;8.12;75.55;101957.13;5060736;28;46228;-82
2022/11/30 00:34:55;;;;;;;;;14.25;12.25;;;;;8.03;75.49;101951.94;5040252;28;45562;-82
2022/11/30 00:37:21;;;;;;;;;17.75;12.25;;;;;8.09;76.28;101962.31;5039526;28;63954;-82
2022/11/30 00:39:46;;;;;;;;;23.75;15.75;;;;;8.10;75.57;101958.88;5026685;28;45377;-82
2022/11/30 00:42:12;;;;;;;;;26.25;14.50;;;;;8.06;75.61;101953.66;5059326;28;46979;-82
2022/11/30 00:44:37;;;;;;;;;21.75;13.25;;;;;8.05;76.12;101955.41;5077309;28;51238;-82
2022/11/30 00:47:03;;;;;;;;;24.50;14.75;;;;;8.07;75.96;101958.00;5078238;28;47506;-82
2022/11/30 00:49:29;;;;;;;;;19.75;16.25;;;;;8.00;75.71;101946.75;5060394;28;45543;-82
2022/11/30 00:51:54;;;;;;;;;14.50;12.00;;;;;7.98;75.75;101948.47;5060150;28;45681;-82
2022/11/30 00:54:19;;;;;;;;;23.25;16.50;;;;;7.91;76.13;101934.66;5059073;28;70306;-82
2022/11/30 00:56:45;;;;;;;;;20.75;13.75;;;;;7.91;75.96;101939.84;5060239;28;45327;-82
2022/11/30 00:59:10;;;;;;;;;16.50;14.00;;;;;7.94;76.16;101944.16;5059064;28;63798;-82
2022/11/30 01:01:36;;;;;;;;;20.50;12.75;;;;;7.95;76.15;101938.13;5077923;28;52647;-82
2022/11/30 01:04:01;;;;;;;;;15.50;11.50;;;;;8.02;75.88;101946.75;5078197;28;45162;-82
2022/11/30 01:06:27;;;;;;;;;17.75;13.00;;;;;7.95;76.15;101935.53;5078177;28;45366;-82
2022/11/30 01:08:52;;;;;;;;;18.75;13.00;;;;;7.95;75.70;101932.94;5076959;28;45542;-82
2022/11/30 01:11:26;;;;;;;;;14.50;12.00;;;;;7.98;75.60;101947.63;5059766;28;47165;-82
2022/11/30 01:13:52;;;;;;;;;18.50;12.25;;;;;7.99;75.91;101946.78;5059583;28;45935;-82
2022/11/30 01:16:20;;;;;;;;;17.50;12.50;;;;;8.02;75.90;101950.19;5077968;28;45301;-82
2022/11/30 01:18:46;;;;;;;;;12.50;8.75;;;;;8.02;75.98;101957.97;5077933;28;45573;-82
2022/11/30 01:21:14;;;;;;;;;13.75;13.25;;;;;7.97;76.27;101949.34;5059757;28;47673;-82
2022/11/30 01:23:39;;;;;;;;;14.25;9.25;;;;;7.91;76.14;101944.13;5059765;28;45514;-82
2022/11/30 01:26:06;;;;;;;;;15.50;9.00;;;;;7.86;75.94;101945.88;5077878;28;45427;-82
2022/11/30 01:28:32;;;;;;;;;17.50;9.00;;;;;7.88;75.97;101954.53;5077338;28;45291;-82
2022/11/30 01:30:58;;;;;;;;;18.50;13.50;;;;;7.80;76.24;101945.84;5064028;27;46233;-82
2022/11/30 01:33:24;;;;;;;;;13.00;5.00;;;;;7.81;76.64;101951.03;5098227;27;45739;-82
2022/11/30 01:36:07;;;;;;;;;17.00;10.00;;;;;7.80;76.27;101948.44;5079930;27;45257;-82
2022/11/30 01:38:35;;;;;;;;;12.75;10.50;;;;;7.83;76.13;101951.06;5079924;27;45279;-82
2022/11/30 01:41:02;;;;;;;;;13.00;9.00;;;;;7.80;76.06;101948.44;5073891;27;45521;-82
2022/11/30 01:43:41;;;;;;;;;13.25;9.25;;;;;7.83;76.30;101951.06;5062302;27;45860;-82
2022/11/30 01:46:18;;;;;;;;;16.75;9.00;;;;;7.79;76.05;101938.97;5079973;27;45388;-82
2022/11/30 01:48:43;;;;;;;;;19.00;10.00;;;;;7.82;76.62;101944.13;5098094;27;45457;-82
2022/11/30 01:51:09;;;;;;;;;12.50;9.00;;;;;7.89;76.33;101962.31;5061818;27;59428;-82
2022/11/30 01:53:34;;;;;;;;;12.50;8.50;;;;;7.92;76.49;101954.53;5097602;27;45670;-83
2022/11/30 01:55:59;;;;;;;;;15.50;8.75;;;;;7.90;76.20;101945.88;5079607;27;45474;-82
2022/11/30 01:58:28;;;;;;;;;8.75;8.50;;;;;7.87;76.19;101942.41;5078972;27;49659;-82
2022/11/30 02:00:53;;;;;;;;;9.25;9.00;;;;;7.86;76.25;101945.88;5079422;27;45362;-82
2022/11/30 02:03:25;;;;;;;;;9.25;7.00;;;;;7.91;76.36;101957.09;5078545;27;66081;-82
2022/11/30 02:05:50;;;;;;;;;10.25;8.75;;;;;7.89;76.10;101954.53;5079294;27;45454;-82
2022/11/30 02:08:16;;;;;;;;;10.50;8.25;;;;;7.82;76.21;101944.13;5079345;27;47244;-82
2022/11/30 02:10:44;;;;;;;;;13.25;8.00;;;;;7.88;76.23;101951.94;5078185;27;75423;-82
2022/11/30 02:13:31;;;;;;;;;7.00;6.00;;;;;7.93;76.26;101952.78;5078930;27;45835;-82
2022/11/30 02:16:06;;;;;;;;;13.00;8.00;;;;;7.90;76.14;101953.66;5097352;27;45273;-82
2022/11/30 02:18:38;;;;;;;;;11.00;11.00;;;;;7.80;75.93;101938.06;5097553;27;45178;-83
2022/11/30 02:21:06;;;;;;;;;11.00;6.00;;;;;7.88;76.30;101959.72;5097171;27;45521;-82
2022/11/30 02:23:41;;;;;;;;;10.75;5.50;;;;;7.88;76.42;101957.13;5097398;27;45789;-82
2022/11/30 02:26:21;;;;;;;;;13.50;9.75;;;;;7.88;76.39;101955.38;5097288;27;45229;-82
2022/11/30 02:29:04;;;;;;;;;9.75;8.00;;;;;7.81;76.15;101934.63;5097485;27;45410;-82
2022/11/30 02:31:34;;;;;;;;;14.00;8.25;;;;;7.87;75.98;101950.19;5097025;27;46336;-82
2022/11/30 02:34:02;;;;;;;;;16.25;9.00;;;;;7.83;75.80;101949.31;5061971;27;45864;-82
2022/11/30 02:36:27;;;;;;;;;10.00;7.50;;;;;7.88;76.09;101954.53;5096938;27;46067;-82
2022/11/30 02:38:53;;;;;;;;;14.50;8.75;;;;;7.88;75.85;101957.97;5079033;27;45372;-82
2022/11/30 02:41:18;;;;;;;;;11.50;5.25;;;;;7.79;76.02;101945.00;5077119;27;76192;-82
2022/11/30 02:43:44;;;;;;;;;11.00;6.00;;;;;7.80;75.96;101957.09;5078739;27;45288;-82
2022/11/30 02:46:22;;;;;;;;;11.75;9.50;;;;;7.76;75.91;101952.75;5079023;27;45316;-82
2022/11/30 02:48:50;;;;;;;;;11.00;8.50;;;;;7.76;76.30;101957.94;5078814;27;45470;-82
2022/11/30 02:51:19;;;;;;;;;19.25;9.50;;;;;7.73;76.06;101947.59;5096728;27;45410;-82
2022/11/30 02:53:45;;;;;;;;;9.00;5.75;;;;;7.69;76.14;101938.94;5078626;27;45648;-82
2022/11/30 02:56:10;;;;;;;;;9.25;5.00;;;;;7.77;76.45;101954.50;5096455;27;45485;-82
2022/11/30 02:58:35;;;;;;;;;17.00;9.75;;;;;7.72;76.64;101938.91;5078681;27;45441;-81
2022/11/30 03:01:01;;;;;;;;;13.75;9.75;;;;;7.77;76.71;101943.28;5077665;27;69876;-82
2022/11/30 03:03:26;;;;;;;;;18.75;8.50;;;;;7.73;76.42;101935.47;5096785;27;45768;-82
2022/11/30 03:05:51;;;;;;;;;14.25;9.00;;;;;7.81;76.45;101942.41;5077631;27;45452;-82
2022/11/30 03:08:17;;;;;;;;;12.75;6.00;;;;;7.84;76.51;101950.22;5096296;27;56733;-82
2022/11/30 03:10:42;;;;;;;;;11.50;9.25;;;;;7.81;76.15;101934.63;5094943;27;46596;-82
2022/11/30 03:13:07;;;;;;;;;16.25;12.00;;;;;7.88;76.40;101950.19;5077610;27;60402;-82
2022/11/30 03:15:34;;;;;;;;;15.00;6.00;;;;;7.87;75.98;101948.44;5096917;27;45474;-82
2022/11/30 03:18:03;;;;;;;;;9.00;7.50;;;;;7.87;76.05;101945.88;5081832;27;45426;-83
2022/11/30 03:20:28;;;;;;;;;15.00;9.50;;;;;7.94;76.02;101960.56;5102470;27;45292;-82
2022/11/30 03:22:54;;;;;;;;;12.00;7.50;;;;;7.89;75.97;101951.06;5102865;27;50321;-82
2022/11/30 03:25:19;;;;;;;;;11.50;6.00;;;;;7.93;75.85;101964.03;5102463;27;45212;-82
2022/11/30 03:27:44;;;;;;;;;13.00;10.00;;;;;7.92;76.16;101964.03;5101904;27;57873;-82
2022/11/30 03:30:10;;;;;;;;;13.25;8.50;;;;;7.95;75.99;101966.66;5101530;27;54460;-82
2022/11/30 03:32:35;;;;;;;;;14.00;8.25;;;;;7.82;75.42;101951.91;5064860;28;45365;-82
2022/11/30 03:35:01;;;;;;;;;15.25;6.00;;;;;7.85;75.91;101970.91;5080550;28;64914;-82
2022/11/30 03:37:26;;;;;;;;;11.00;7.50;;;;;7.80;75.56;101958.81;5080825;28;45440;-81
2022/11/30 03:39:52;;;;;;;;;9.25;5.50;;;;;7.79;75.93;101967.47;5056574;28;45331;-83
2022/11/30 03:42:17;;;;;;;;;8.00;6.00;;;;;7.82;75.97;101972.63;5073759;28;57712;-82
2022/11/30 03:44:42;;;;;;;;;10.00;3.50;;;;;7.65;75.68;101952.75;5075638;28;47688;-82
2022/11/30 03:47:08;;;;;;;;;13.75;7.50;;;;;7.76;76.12;101981.25;5074109;28;45581;-82
2022/11/30 03:49:33;;;;;;;;;8.00;5.00;;;;;7.71;75.91;101975.22;5075104;28;63008;-82
2022/11/30 03:51:58;;;;;;;;;5.00;4.00;;;;;7.67;75.62;101984.72;5057342;28;47647;-82
2022/11/30 03:54:24;;;;;;;;;16.25;5.00;;;;;7.67;76.04;101987.31;5074459;28;45407;-83
2022/11/30 03:56:49;;;;;;;;;8.50;6.00;;;;;7.63;75.68;101987.28;5075642;28;45319;-82
2022/11/30 03:59:14;;;;;;;;;4.50;4.00;;;;;7.62;75.68;101993.34;5075020;28;58800;-82
2022/11/30 04:01:40;;;;;;;;;8.75;5.00;;;;;7.63;75.75;101998.50;5073159;28;67347;-83
2022/11/30 04:04:05;;;;;;;;;9.50;4.50;;;;;7.56;76.10;101997.63;5057085;28;61418;-82
2022/11/30 04:06:30;;;;;;;;;6.50;3.50;;;;;7.56;76.13;102001.97;5057497;28;45263;-82
2022/11/30 04:08:56;;;;;;;;;5.75;4.00;;;;;7.49;75.98;101995.03;5075091;28;53212;-82
2022/11/30 04:11:21;;;;;;;;;5.50;3.50;;;;;7.49;76.28;101997.59;5057381;28;45379;-82
2022/11/30 04:13:46;;;;;;;;;3.50;1.75;;;;;7.47;75.71;101995.00;5056718;28;59806;-82
2022/11/30 04:16:12;;;;;;;;;3.50;1.75;;;;;7.44;76.07;102001.91;5056597;28;57610;-82
2022/11/30 04:18:38;;;;;;;;;5.00;4.75;;;;;7.44;76.22;101997.56;5059710;28;59368;-82
2022/11/30 04:21:04;;;;;;;;;1.75;1.75;;;;;7.46;76.10;102007.94;5078957;28;45253;-82
2022/11/30 04:23:32;;;;;;;;;4.50;1.00;;;;;7.49;75.74;102014.00;5078991;28;45368;-82
2022/11/30 04:25:57;;;;;;;;;3.00;2.00;;;;;7.40;76.03;102013.13;5078860;28;45477;-82
2022/11/30 04:28:22;;;;;;;;;2.00;1.50;;;;;7.36;75.99;102013.09;5078529;28;45561;-82
2022/11/30 04:30:48;;;;;;;;;2.00;2.00;;;;;7.34;75.78;102016.53;5063705;27;45732;-82
2022/11/30 04:33:15;;;;;;;;;3.25;1.75;;;;;7.39;76.01;102021.72;5080645;27;52001;-82
2022/11/30 04:35:56;;;;;;;;;4.50;2.50;;;;;7.30;76.01;102014.78;5063881;27;45353;-82
2022/11/30 04:38:23;;;;;;;;;5.25;2.00;;;;;7.26;76.42;102015.63;5098976;27;46376;-82
2022/11/30 04:40:48;;;;;;;;;1.75;1.75;;;;;7.24;76.34;102025.97;5074667;27;45595;-82
2022/11/30 04:43:14;;;;;;;;;2.00;1.00;;;;;7.16;76.45;102010.38;5080190;27;64527;-82
2022/11/30 04:45:39;;;;;;;;;2.00;2.00;;;;;7.24;75.90;102032.88;5098363;27;60429;-82
2022/11/30 04:48:05;;;;;;;;;4.25;2.00;;;;;7.10;76.31;102022.44;5080386;27;47454;-82
2022/11/30 04:50:31;;;;;;;;;1.00;1.00;;;;;7.04;76.08;102018.09;5098615;27;45437;-83
2022/11/30 04:52:56;;;;;;;;;4.75;2.00;;;;;7.07;76.20;102033.63;5080785;27;45348;-83
2022/11/30 04:55:22;;;;;;;;;4.50;2.00;;;;;7.01;76.15;102028.44;5098640;27;45308;-82
2022/11/30 04:57:48;;;;;;;;;8.00;4.00;;;;;7.02;76.23;102035.34;5098511;27;46464;-82
2022/11/30 05:00:15;;;;;;;;;4.75;1.50;;;;;7.03;75.94;102042.25;5080516;27;48651;-83
2022/11/30 05:02:40;;;;;;;;;6.75;3.00;;;;;6.88;75.85;102027.47;5098799;27;45905;-82
2022/11/30 05:05:06;;;;;;;;;4.00;4.00;;;;;6.88;75.98;102035.25;5080262;27;45316;-82
2022/11/30 05:07:31;;;;;;;;;1.75;1.75;;;;;6.93;76.18;102045.66;5098401;27;46017;-82
2022/11/30 05:09:57;;;;;;;;;3.50;3.00;;;;;6.81;76.39;102017.06;5080078;27;52385;-82
2022/11/30 05:12:22;;;;;;;;;1.75;1.00;;;;;6.84;76.22;102020.56;5079985;27;53778;-82
2022/11/30 05:14:47;;;;;;;;;5.25;2.00;;;;;6.83;76.41;102020.53;5080274;27;45304;-82
2022/11/30 05:17:13;;;;;;;;;3.00;2.00;;;;;6.74;75.89;102010.97;5097610;27;66331;-82
2022/11/30 05:19:38;;;;;;;;;4.25;1.75;;;;;6.69;76.08;102010.94;5079647;27;45312;-82
2022/11/30 05:22:03;;;;;;;;;5.00;4.00;;;;;6.77;76.11;102027.38;5079927;27;56299;-82
2022/11/30 05:24:29;;;;;;;;;2.00;2.00;;;;;6.70;76.37;102017.00;5079861;27;47204;-82
2022/11/30 05:26:54;;;;;;;;;2.50;1.00;;;;;6.72;76.05;102015.28;5098260;27;48735;-82
2022/11/30 05:29:19;;;;;;;;;4.25;3.00;;;;;6.74;76.09;102023.91;5096640;27;66370;-82
2022/11/30 05:31:45;;;;;;;;;4.00;2.00;;;;;6.77;76.23;102029.13;5097434;27;45477;-82
2022/11/30 05:34:10;;;;;;;;;5.00;4.00;;;;;6.69;76.01;102016.13;5097970;27;45420;-82
2022/11/30 05:36:35;;;;;;;;;2.00;2.00;;;;;6.68;76.20;102021.28;5079428;27;51678;-82
2022/11/30 05:39:01;;;;;;;;;4.00;2.00;;;;;6.69;76.58;102023.03;5098087;27;45236;-82
2022/11/30 05:41:26;;;;;;;;;6.25;4.00;;;;;6.75;76.16;102026.53;5062287;27;45446;-82
2022/11/30 05:43:51;;;;;;;;;4.50;2.00;;;;;6.66;76.61;102013.50;5077687;28;45256;-82
2022/11/30 05:46:17;;;;;;;;;4.50;2.00;;;;;6.75;76.40;102021.34;5076782;28;64391;-82
2022/11/30 05:48:42;;;;;;;;;1.25;1.00;;;;;6.77;76.15;102029.13;5058521;28;58265;-82
2022/11/30 05:51:11;;;;;;;;;8.50;3.50;;;;;6.76;76.41;102027.38;5042383;28;47577;-82
2022/11/30 05:53:36;;;;;;;;;5.25;2.50;;;;;6.72;76.13;102029.09;5059248;28;45591;-82
2022/11/30 05:56:07;;;;;;;;;5.00;2.00;;;;;6.74;76.60;102023.91;5077132;28;47215;-82
2022/11/30 05:58:33;;;;;;;;;1.50;1.50;;;;;6.75;76.51;102021.34;5077385;28;45440;-82
2022/11/30 06:00:58;;;;;;;;;5.25;2.00;;;;;6.81;76.20;102025.69;5059488;28;45316;-82
2022/11/30 06:03:24;;;;;;;;;4.25;1.00;;;;;6.76;76.38;102023.09;5058895;28;45404;-83
2022/11/30 06:05:50;;;;;;;;;4.00;2.00;;;;;6.86;76.71;102030.91;5058878;28;47007;-82
2022/11/30 06:08:16;;;;;;;;;7.25;3.00;;;;;6.85;76.74;102021.41;5077253;28;45466;-82
2022/11/30 06:10:41;;;;;;;;;5.00;1.00;;;;;6.88;76.17;102018.84;5077257;28;45427;-82
2022/11/30 06:13:08;;;;;;;;;2.00;1.75;;;;;6.96;75.99;102019.75;5076478;28;64002;-82
2022/11/30 06:15:35;;;;;;;;;2.50;2.50;;;;;7.00;76.12;102016.31;5059032;28;47015;-82
2022/11/30 06:18:00;;;;;;;;;7.75;5.50;;;;;6.98;75.91;102023.22;5076519;28;45879;-82
2022/11/30 06:20:26;;;;;;;;;9.50;5.00;;;;;6.84;76.06;102010.19;5057868;28;69111;-82
2022/11/30 06:22:51;;;;;;;;;6.75;4.25;;;;;6.88;76.09;102018.84;5077074;28;45424;-82
2022/11/30 06:25:17;;;;;;;;;8.25;4.25;;;;;6.81;76.24;102006.72;5057907;28;68279;-81
2022/11/30 06:27:42;;;;;;;;;6.50;6.00;;;;;6.93;76.28;102019.75;5076867;28;45323;-82
2022/11/30 06:30:08;;;;;;;;;6.25;4.00;;;;;6.93;76.31;102017.16;5076839;28;45206;-82
2022/11/30 06:32:33;;;;;;;;;4.00;4.00;;;;;6.95;76.40;102013.72;5074341;27;45609;-82
2022/11/30 06:34:59;;;;;;;;;8.00;4.00;;;;;7.05;76.41;102021.56;5078572;27;48527;-82
2022/11/30 06:37:24;;;;;;;;;11.25;7.00;;;;;7.04;76.44;102014.63;5096185;27;67142;-82
2022/11/30 06:39:49;;;;;;;;;4.75;4.75;;;;;7.00;75.97;102015.47;5097041;27;45296;-82
2022/11/30 06:42:15;;;;;;;;;6.25;5.00;;;;;7.10;75.99;102031.06;5078111;27;61173;-82
2022/11/30 06:44:40;;;;;;;;;5.75;4.00;;;;;7.02;76.26;102022.41;5096725;27;45415;-82
2022/11/30 06:47:05;;;;;;;;;7.50;4.75;;;;;7.01;75.56;102025.84;5077478;27;67739;-82
2022/11/30 06:49:31;;;;;;;;;7.75;5.25;;;;;7.00;76.14;102028.41;5078782;27;45437;-82
2022/11/30 06:51:56;;;;;;;;;9.50;4.00;;;;;7.02;75.91;102022.41;5096356;27;63044;-82
2022/11/30 06:54:21;;;;;;;;;11.25;4.00;;;;;7.06;76.11;102033.66;5077994;27;56845;-83
2022/11/30 06:56:47;;;;;;;;;8.75;5.00;;;;;7.05;75.85;102031.91;5078475;27;48399;-84
2022/11/30 06:59:12;;;;;;;;;10.00;5.00;;;;;7.08;76.08;102032.78;5078331;27;49258;-83
2022/11/30 07:01:38;;;;;;;;;9.00;5.00;;;;;7.12;75.55;102049.22;5095735;27;67666;-82
2022/11/30 07:04:03;;;;;;;;;7.25;4.00;;;;;7.05;75.64;102040.53;5096475;27;48466;-82
2022/11/30 07:06:28;;;;;;;;;10.75;6.25;;;;;7.06;75.77;102044.00;5096077;27;45742;-82
2022/11/30 07:08:54;;;;;;;;;5.25;5.00;;;;;7.03;75.87;102038.81;5096815;27;45502;-81
2022/11/30 07:11:19;;;;;;;;;6.25;5.00;;;;;7.07;75.62;102044.00;5076834;27;66815;-82
2022/11/30 07:13:44;;;;;;;;;14.25;6.00;;;;;7.08;75.53;102042.28;5094664;27;55973;-80
2022/11/30 07:16:10;;;;;;;;;5.00;4.00;;;;;7.04;75.55;102037.94;5095209;27;45583;-82
2022/11/30 07:18:36;;;;;;;;;8.00;5.50;;;;;7.03;75.47;102041.38;5078219;27;45353;-81
2022/11/30 07:21:03;;;;;;;;;15.75;5.00;;;;;7.12;75.52;102047.50;5077915;27;45351;-82
2022/11/30 07:26:13;;;;;;;;;8.00;6.00;;;;;7.10;75.27;102056.13;5080305;27;45470;-82
2022/11/30 07:28:43;;;;;;;;;8.00;5.75;;;;;7.09;75.39;102063.00;5095279;27;52145;-82
2022/11/30 07:31:18;;;;;;;;;8.00;5.00;;;;;7.05;75.70;102053.47;5058837;27;45604;-83
2022/11/30 07:33:43;;;;;;;;;8.50;6.00;;;;;7.12;75.38;102069.94;5077397;27;46486;-83
2022/11/30 07:36:09;;;;;;;;;13.50;8.00;;;;;7.10;75.55;102064.75;5077076;27;45569;-87
2022/11/30 07:38:34;;;;;;;;;10.00;4.75;;;;;7.03;75.77;102054.34;5077967;27;45687;-83
2022/11/30 07:40:59;;;;;;;;;13.75;10.75;;;;;7.09;75.67;102065.59;5085006;27;56936;-83
2022/11/30 07:43:26;;;;;;;;;9.50;9.00;;;;;7.17;75.85;102076.88;5092835;27;71426;-83
2022/11/30 07:45:52;;;;;;;;;14.00;7.25;;;;;7.17;75.85;102079.47;5077180;27;45410;-84
2022/11/30 07:48:18;;;;;;;;;9.00;5.50;;;;;7.23;75.83;102083.81;5078074;27;45402;-84
2022/11/30 07:50:43;;;;;;;;;12.25;8.25;;;;;7.29;75.94;102083.00;5077350;27;45472;-81
2022/11/30 07:53:08;;;;;;;;;10.25;9.00;;;;;7.31;76.04;102076.94;5096752;27;71425;-83
2022/11/30 07:55:34;;;;;;;;;7.25;4.50;;;;;7.35;75.70;102085.59;5099080;27;58985;-83
2022/11/30 07:57:59;;;;;;;;;9.00;7.25;;;;;7.29;75.71;102078.66;5080946;27;45462;-84
2022/11/30 08:00:24;;;;;;;;;11.00;5.00;;;;;7.30;75.50;102084.69;5080150;27;56604;-83
2022/11/30 08:02:50;;;;;;;;;10.25;5.00;;;;;7.28;75.47;102078.66;5081280;27;46108;-83
2022/11/30 08:05:16;;;;;;;;;12.50;9.00;;;;;7.39;75.65;102091.66;5080774;27;45470;-83
2022/11/30 08:07:41;;;;;;;;;11.50;6.50;;;;;7.36;75.51;102093.38;5099540;27;45402;-83
2022/11/30 08:10:07;;;;;;;;;10.00;8.25;;;;;7.35;75.65;102096.84;5081337;27;45325;-85
2022/11/30 08:12:33;;;;;;;;;9.25;3.00;;;;;7.36;75.58;102095.97;5085659;27;45464;-83
2022/11/30 08:14:58;;;;;;;;;10.50;7.00;;;;;7.31;75.63;102089.03;5098287;27;59289;-82
2022/11/30 08:17:23;;;;;;;;;9.00;6.50;;;;;7.35;76.21;102085.59;5071719;28;59264;-79
2022/11/30 08:19:49;;;;;;;;;15.75;8.00;;;;;7.42;75.79;102087.38;5060702;28;45650;-81
2022/11/30 08:22:14;;;;;;;;;10.00;9.00;;;;;7.42;75.52;102082.19;5078216;28;61017;-82
2022/11/30 08:24:39;;;;;;;;;13.75;9.00;;;;;7.55;75.28;102098.69;5105784;27;58616;-81
2022/11/30 08:27:05;;;;;;;;;11.25;8.00;;;;;7.61;75.58;102096.13;5088654;27;59053;-83
2022/11/30 08:29:30;;;;;;;;;13.75;6.00;;;;;7.60;75.64;102094.41;5098018;27;60393;-83
2022/11/30 08:31:55;;;;;;;;;9.75;6.25;;;;;7.63;75.44;102089.22;5068890;28;60763;-83
2022/11/30 08:34:21;;;;;;;;;8.75;8.00;;;;;7.74;74.99;102105.72;5059690;28;65153;-84
2022/11/30 08:36:46;;;;;;;;;9.00;6.00;;;;;7.76;74.70;102097.91;5078671;28;45275;-83
2022/11/30 08:39:12;;;;;;;;;7.00;5.75;;;;;7.69;74.98;102090.97;5060315;28;45640;-84
2022/11/30 08:41:38;;;;;;;;;9.50;6.00;;;;;7.76;74.40;102092.72;5054357;28;46148;-83
2022/11/30 08:44:04;;;;;;;;;19.00;10.25;;;;;7.73;74.62;102091.00;5060033;28;45503;-83
2022/11/30 08:46:29;;;;;;;;;10.25;8.75;;;;;7.79;74.86;102104.84;5078635;28;45308;-82
2022/11/30 08:48:55;;;;;;;;;8.75;5.25;;;;;7.75;74.63;102094.47;5060462;28;45263;-84
2022/11/30 08:51:20;;;;;;;;;13.00;6.00;;;;;7.84;74.78;102108.34;5059880;28;56079;-83
2022/11/30 08:53:47;;;;;;;;;13.50;9.00;;;;;7.79;74.66;102100.53;5060103;28;45396;-83
2022/11/30 08:56:15;;;;;;;;;13.50;9.00;;;;;7.87;74.77;102113.50;5078230;28;45399;-83
2022/11/30 08:58:40;;;;;;;;;13.25;12.00;;;;;7.86;74.64;102109.22;5078116;28;45328;-83
2022/11/30 09:01:12;;;;;;;;;13.00;8.00;;;;;7.95;74.28;102114.44;5059945;28;48305;-83
2022/11/30 09:03:38;;;;;;;;;14.50;8.25;;;;;7.88;74.54;102100.56;5076929;28;45738;-83
2022/11/30 09:06:05;;;;;;;;;12.25;8.25;;;;;7.92;74.74;102104.91;5060079;28;45407;-84
2022/11/30 09:08:31;;;;;;;;;14.00;9.00;;;;;7.94;74.21;102110.09;5077009;28;45368;-83
2022/11/30 09:10:56;;;;;;;;;15.50;9.00;;;;;7.90;74.48;102093.66;5059950;28;46372;-83
2022/11/30 09:13:22;;;;;;;;;16.75;10.75;;;;;8.03;74.53;102111.88;5059595;28;45310;-83
2022/11/30 09:15:56;;;;;;;;;13.00;9.50;;;;;8.08;74.44;102112.75;5059559;28;50863;-83
2022/11/30 09:18:22;;;;;;;;;13.25;9.00;;;;;8.11;74.24;102107.56;5059870;28;45580;-83
2022/11/30 09:20:47;;;;;;;;;13.75;10.00;;;;;8.12;74.03;102107.56;5077751;28;45418;-83
2022/11/30 09:23:12;;;;;;;;;10.25;9.00;;;;;8.24;73.92;102135.25;5077227;28;61279;-84
2022/11/30 09:25:38;;;;;;;;;11.50;10.00;;;;;8.22;73.96;102125.75;5041986;28;64299;-83
2022/11/30 09:28:03;;;;;;;;;10.50;9.00;;;;;8.25;73.39;102128.38;5059154;28;51139;-83
2022/11/30 09:30:28;;;;;;;;;16.00;7.50;;;;;8.19;74.16;102124.03;5059625;28;46203;-83
2022/11/30 09:32:54;;;;;;;;;12.25;10.00;;;;;8.22;74.04;102125.75;5096088;27;55727;-83
2022/11/30 09:35:19;;;;;;;;;9.25;8.00;;;;;8.25;73.85;102125.78;5097639;27;53732;-83
2022/11/30 09:37:44;;;;;;;;;10.00;9.50;;;;;8.30;73.38;102134.41;5097367;27;63933;-84
2022/11/30 09:40:12;;;;;;;;;14.75;9.25;;;;;8.32;73.80;102127.50;5072245;27;65825;-84
2022/11/30 09:42:42;;;;;;;;;12.50;8.75;;;;;8.38;73.70;102139.66;5077132;28;45744;-83
2022/11/30 09:45:18;;;;;;;;;14.50;9.00;;;;;8.32;73.86;102128.38;5042655;28;45321;-83
2022/11/30 09:47:51;;;;;;;;;14.25;10.75;;;;;8.37;73.16;102133.56;5059540;28;45309;-83
2022/11/30 09:50:22;;;;;;;;;15.50;11.00;;;;;8.45;73.69;102150.06;5077262;28;45417;-83
2022/11/30 09:52:52;;;;;;;;;13.75;10.00;;;;;8.41;73.56;102132.72;5059424;28;45450;-83
2022/11/30 09:55:27;;;;;;;;;11.75;9.25;;;;;8.42;73.55;102133.63;5077080;28;45371;-83
2022/11/30 09:58:00;;;;;;;;;12.00;7.75;;;;;8.47;73.21;102129.31;5059389;28;45385;-83
2022/11/30 10:00:25;;;;;;;;;15.50;10.00;;;;;8.46;72.87;102130.16;5059100;28;46252;-83
2022/11/30 10:02:55;;;;;;;;;11.75;9.50;;;;;8.56;72.34;102137.09;5059103;28;45365;-83
2022/11/30 10:05:39;;;;;;;;;16.50;9.75;;;;;8.59;72.33;102141.44;5059184;28;45323;-83
2022/11/30 10:08:23;;;;;;;;;17.00;10.00;;;;;8.62;72.99;102138.88;5077356;28;45293;-83
2022/11/30 10:11:13;;;;;;;;;15.25;9.00;;;;;8.67;72.96;102135.41;5076876;28;47098;-83
2022/11/30 10:13:56;;;;;;;;;15.25;10.50;;;;;8.68;72.59;102134.53;5076984;28;45907;-83
2022/11/30 10:16:47;;;;;;;;;12.25;8.25;;;;;8.82;72.68;102141.47;5058586;28;45494;-83
2022/11/30 10:19:34;;;;;;;;;9.00;9.00;;;;;8.92;72.53;102140.63;5058953;28;45326;-83
2022/11/30 10:22:02;;;;;;;;;11.25;9.25;;;;;8.97;72.13;102138.00;5076774;28;45627;-83
2022/11/30 10:24:53;;;;;;;;;9.00;5.00;;;;;8.95;71.36;102145.78;5076590;28;45448;-83
2022/11/30 10:27:44;;;;;;;;;12.50;5.50;;;;;8.95;71.15;102135.41;5047953;28;45412;-82
2022/11/30 10:30:15;;;;;;;;;8.50;8.00;;;;;8.89;71.58;102115.50;5058451;28;45495;-83
2022/11/30 10:32:42;;;;;;;;;9.00;8.00;;;;;8.98;71.16;102139.75;5076467;28;46408;-83
2022/11/30 10:35:36;;;;;;;;;12.00;8.75;;;;;9.00;71.43;102133.69;5041775;28;46002;-83
2022/11/30 10:38:13;;;;;;;;;13.50;7.25;;;;;9.03;71.29;102128.50;5035618;28;45682;-83
2022/11/30 10:40:50;;;;;;;;;11.25;9.00;;;;;9.01;70.92;102119.84;5062913;27;45429;-83
2022/11/30 10:43:39;;;;;;;;;17.25;10.00;;;;;9.05;71.12;102126.75;5078554;27;47152;-83
2022/11/30 10:46:04;;;;;;;;;14.25;9.50;;;;;8.98;70.58;102126.78;5078914;27;45340;-83
2022/11/30 10:48:30;;;;;;;;;12.50;9.00;;;;;8.88;71.05;102129.38;5096940;27;45347;-83
2022/11/30 10:50:56;;;;;;;;;13.67;8.67;;;;;8.74;70.81;102115.50;5097113;27;45212;-83
2022/11/30 10:53:22;;;;;;;;;12.75;9.25;;;;;8.70;70.78;102117.22;5077983;27;46318;-83
2022/11/30 10:56:05;;;;;;;;;16.25;11.25;;;;;8.69;70.96;102117.22;5096636;27;45698;-83
2022/11/30 10:58:35;;;;;;;;;16.75;10.75;;;;;8.61;71.36;102105.97;5078717;27;45357;-83
2022/11/30 11:01:06;;;;;;;;;19.75;7.75;;;;;8.66;71.42;102105.13;5096832;27;45395;-83
2022/11/30 11:03:31;;;;;;;;;14.25;10.00;;;;;8.81;71.38;102111.19;5078472;27;45411;-83
2022/11/30 11:06:20;;;;;;;;;15.00;8.50;;;;;8.95;71.69;102113.78;5096606;27;45692;-83
2022/11/30 11:08:45;;;;;;;;;17.25;10.75;;;;;8.95;71.15;102098.19;5078358;27;45471;-83
2022/11/30 11:11:37;;;;;;;;;10.00;7.25;;;;;9.02;71.07;102113.75;5078402;27;45637;-83
2022/11/30 11:14:20;;;;;;;;;14.50;9.25;;;;;9.07;70.59;102106.84;5078189;27;45470;-83
2022/11/30 11:16:53;;;;;;;;;13.75;9.00;;;;;9.18;70.47;102111.19;5096546;27;45820;-83
2022/11/30 11:19:33;;;;;;;;;16.50;11.25;;;;;9.24;70.70;102101.63;5096506;27;45296;-83
2022/11/30 11:22:02;;;;;;;;;14.50;8.75;;;;;9.21;70.13;102085.19;5096114;27;45411;-83
2022/11/30 11:24:27;;;;;;;;;17.00;10.75;;;;;9.22;69.79;102090.38;5078001;27;46980;-83
2022/11/30 11:26:54;;;;;;;;;19.00;15.50;;;;;9.28;70.55;102100.75;5095497;27;45462;-83
2022/11/30 11:29:32;;;;;;;;;13.25;10.75;;;;;9.27;70.11;102101.63;5096496;27;45486;-83
2022/11/30 11:32:20;;;;;;;;;13.50;13.50;;;;;9.27;70.68;102092.97;5061082;27;45744;-83